Time;durP1;ratioP1;P1;durP2;ratioP2;P2;SDS_P1;SDS_P2;PMS_P1;PMS_P2;Temp;Humidity;BMP_temperature;BMP_pressure;BME280_temperature;BME280_humidity;BME280_pressure;Samples;Min_cycle;Max_cycle;Signal;HPM_P1;HPM_P2
2021/05/06 00:02:25;;;;;;;;;22.60;20.00;;;;;12.78;49.91;100321.75;496672;109;383195;-76
2021/05/06 00:05:11;;;;;;;;;22.10;19.60;;;;;12.72;50.47;100336.49;471803;109;382733;-78
2021/05/06 00:30:27;;;;;;;;;14.60;13.70;;;;;12.70;47.05;100340.25;497116;109;379362;-75
2021/05/06 00:33:02;;;;;;;;;15.00;13.20;;;;;12.67;46.64;100335.19;496985;109;379320;-75
2021/05/06 00:34:06;;;;;;;;;15.30;13.70;;;;;12.63;46.90;100329.30;496701;109;380405;-73
2021/05/06 00:35:10;;;;;;;;;18.00;16.40;;;;;12.63;46.90;100329.30;497338;109;377988;-73
2021/05/06 00:36:15;;;;;;;;;17.00;13.60;;;;;12.61;47.98;100333.91;496644;109;381468;-75
2021/05/06 00:37:19;;;;;;;;;13.20;12.20;;;;;12.61;46.04;100333.06;497298;109;378688;-75
2021/05/06 00:38:26;;;;;;;;;16.10;14.80;;;;;12.61;47.63;100328.58;497009;109;381308;-76
2021/05/06 00:39:32;;;;;;;;;15.50;14.50;;;;;12.61;47.63;100328.58;496805;109;380634;-75
2021/05/06 00:40:47;;;;;;;;;16.50;16.50;;;;;12.61;46.84;100336.58;496713;109;381046;-76
2021/05/06 00:41:52;;;;;;;;;16.50;15.10;;;;;12.61;47.61;100333.91;495218;109;381400;-75
2021/05/06 00:43:18;;;;;;;;;14.40;12.70;;;;;12.59;47.72;100324.36;496012;109;380177;-75
2021/05/06 00:45:02;;;;;;;;;14.50;12.80;;;;;12.59;47.72;100324.36;495515;109;380456;-76
2021/05/06 00:54:26;;;;;;;;;11.10;10.30;;;;;12.45;48.80;100325.56;496933;109;376419;-79
2021/05/06 00:56:02;;;;;;;;;18.60;16.30;;;;;12.42;47.25;100325.83;496558;109;381482;-80
2021/05/06 00:56:57;;;;;;;;;15.60;13.50;;;;;12.41;47.48;100326.80;482342;111;379314;-79
2021/05/06 00:58:19;;;;;;;;;17.70;14.50;;;;;12.41;47.63;100325.98;483198;113;381541;-77
2021/05/06 01:02:33;;;;;;;;;17.10;15.00;;;;;12.38;47.58;100326.25;464567;117;382005;-75
2021/05/06 01:03:40;;;;;;;;;18.00;16.30;;;;;12.36;47.79;100320.19;470820;115;381770;-77
2021/05/06 01:04:45;;;;;;;;;18.50;15.50;;;;;12.36;47.79;100320.19;483101;113;381243;-77
2021/05/06 01:05:52;;;;;;;;;16.50;15.60;;;;;12.34;47.65;100320.34;483179;113;383552;-78
2021/05/06 01:08:28;;;;;;;;;19.80;18.40;;;;;12.31;47.89;100315.27;460099;119;382613;-77
2021/05/06 01:09:36;;;;;;;;;18.10;16.70;;;;;12.33;49.33;100310.64;476502;114;383544;-76
2021/05/06 01:12:02;;;;;;;;;22.40;20.20;;;;;12.31;47.90;100317.94;484574;112;384771;-76
2021/05/06 01:13:07;;;;;;;;;22.20;17.90;;;;;12.29;49.45;100309.20;484548;112;386264;-76
2021/05/06 01:40:56;;;;;;;;;19.30;18.70;;;;;12.03;50.23;100299.98;482987;113;382812;-76
2021/05/06 01:41:59;;;;;;;;;18.50;15.80;;;;;12.05;49.37;100300.69;482973;113;381482;-79
2021/05/06 01:43:05;;;;;;;;;18.30;17.90;;;;;12.05;49.37;100300.69;483326;113;387730;-77
2021/05/06 01:44:11;;;;;;;;;23.50;20.70;;;;;12.05;49.43;100301.53;473806;114;383633;-79
2021/05/06 01:47:16;;;;;;;;;18.70;17.20;;;;;12.06;50.22;100289.05;468573;116;381272;-82
2021/05/06 01:48:43;;;;;;;;;19.90;18.40;;;;;12.08;50.72;100293.27;484856;112;381662;-84
2021/05/06 01:58:27;;;;;;;;;20.40;18.40;;;;;11.92;51.55;100289.38;487960;111;381782;-78
2021/05/06 01:59:28;;;;;;;;;19.80;18.00;;;;;11.88;51.83;100282.62;488189;111;382608;-78
2021/05/06 02:00:32;;;;;;;;;21.60;19.20;;;;;11.86;52.12;100295.24;487681;111;382957;-78
2021/05/06 02:01:42;;;;;;;;;21.30;20.20;;;;;11.83;51.62;100284.84;487359;111;383247;-80
2021/05/06 02:02:46;;;;;;;;;19.30;17.10;;;;;11.84;51.99;100276.70;488233;111;383180;-79
2021/05/06 02:03:50;;;;;;;;;21.40;19.30;;;;;11.87;51.89;100280.95;488102;111;384060;-79
2021/05/06 02:04:55;;;;;;;;;21.80;17.90;;;;;11.87;51.89;100280.95;488205;111;382105;-80
2021/05/06 02:06:00;;;;;;;;;23.60;21.30;;;;;11.88;52.71;100294.13;477856;113;385183;-79
2021/05/06 02:07:04;;;;;;;;;19.40;16.60;;;;;11.88;52.71;100294.13;478665;114;388353;-80
2021/05/06 02:08:10;;;;;;;;;26.00;22.20;;;;;11.87;51.88;100289.77;487015;111;384615;-81
2021/05/06 02:09:19;;;;;;;;;25.00;21.90;;;;;11.88;52.08;100290.61;487585;111;384307;-80
2021/05/06 02:10:25;;;;;;;;;20.20;19.20;;;;;11.88;52.08;100290.61;489644;111;388262;-81
2021/05/06 02:11:29;;;;;;;;;22.70;20.30;;;;;11.87;51.95;100292.43;489449;111;383358;-82
2021/05/06 02:12:36;;;;;;;;;26.00;22.80;;;;;11.81;52.41;100289.45;487869;111;391737;-83
2021/05/06 02:13:40;;;;;;;;;24.70;23.30;;;;;11.81;52.41;100289.45;478201;114;384531;-82
2021/05/06 02:14:50;;;;;;;;;25.80;23.00;;;;;11.78;52.63;100284.37;478567;114;384028;-83
2021/05/06 02:15:54;;;;;;;;;26.40;22.70;;;;;11.80;51.49;100287.78;488918;111;384926;-85
2021/05/06 02:16:57;;;;;;;;;34.30;29.60;;;;;11.80;51.49;100287.78;487719;111;386040;-86
2021/05/06 02:18:01;;;;;;;;;30.90;26.50;;;;;11.77;52.44;100282.71;489939;111;384428;-86
2021/05/06 02:19:06;;;;;;;;;28.20;24.60;;;;;11.78;52.52;100284.37;489676;111;385984;-86
2021/05/06 02:20:14;;;;;;;;;33.30;27.90;;;;;11.78;52.54;100279.90;487761;111;391422;-85
2021/05/06 02:21:19;;;;;;;;;30.60;28.20;;;;;11.81;52.42;100287.63;487780;111;385115;-85
2021/05/06 02:22:25;;;;;;;;;28.20;23.50;;;;;11.81;52.42;100287.63;487184;111;384886;-86
2021/05/06 02:23:31;;;;;;;;;32.80;29.40;;;;;11.79;52.95;100283.41;489463;111;385972;-87
2021/05/06 02:24:37;;;;;;;;;31.70;27.00;;;;;11.79;52.95;100283.41;488127;111;384689;-84
2021/05/06 02:25:41;;;;;;;;;35.20;32.30;;;;;11.70;53.99;100287.72;489394;111;386606;-83
2021/05/06 02:26:45;;;;;;;;;30.30;26.20;;;;;11.65;53.71;100287.21;488151;111;384289;-78
2021/05/06 02:27:49;;;;;;;;;27.30;24.90;;;;;11.65;53.71;100287.21;490020;111;384156;-79
2021/05/06 02:28:53;;;;;;;;;32.70;30.30;;;;;11.56;55.08;100288.84;489784;111;392342;-80
2021/05/06 02:29:57;;;;;;;;;26.80;22.70;;;;;11.47;55.37;100283.45;488379;111;384259;-80
2021/05/06 02:31:02;;;;;;;;;31.70;28.10;;;;;11.42;55.55;100290.99;489645;111;391984;-76
2021/05/06 02:32:07;;;;;;;;;31.80;27.90;;;;;11.36;56.02;100281.67;489683;111;385128;-79
2021/05/06 02:33:11;;;;;;;;;34.20;28.70;;;;;11.36;56.02;100281.67;489630;111;386616;-81
2021/05/06 02:34:15;;;;;;;;;33.50;29.10;;;;;11.27;56.23;100279.78;489884;111;385807;-77
2021/05/06 02:35:19;;;;;;;;;33.30;27.40;;;;;11.21;56.37;100277.64;490007;111;383726;-77
2021/05/06 02:36:25;;;;;;;;;32.90;29.20;;;;;11.21;56.37;100277.64;487612;111;385902;-76
2021/05/06 02:37:30;;;;;;;;;29.00;25.10;;;;;11.17;56.94;100281.52;488129;111;386747;-77
2021/05/06 02:38:34;;;;;;;;;25.10;21.50;;;;;11.17;56.77;100284.18;488093;111;384540;-76
2021/05/06 02:39:38;;;;;;;;;31.80;24.90;;;;;11.19;56.91;100284.92;489992;111;385284;-77
2021/05/06 02:40:42;;;;;;;;;27.80;24.20;;;;;11.23;55.53;100280.19;489292;111;385579;-78
2021/05/06 02:41:46;;;;;;;;;28.00;20.00;;;;;11.23;55.53;100280.19;489738;111;383638;-77
2021/05/06 02:42:51;;;;;;;;;29.30;26.70;;;;;11.23;56.49;100281.00;489718;111;385516;-77
2021/05/06 02:43:55;;;;;;;;;28.50;24.30;;;;;11.24;56.57;100284.52;488389;111;384242;-77
2021/05/06 02:44:59;;;;;;;;;36.70;29.70;;;;;11.20;57.40;100281.27;488332;111;386428;-79
2021/05/06 02:46:03;;;;;;;;;34.70;25.60;;;;;11.18;56.67;100280.55;488049;111;385471;-80
2021/05/06 02:47:07;;;;;;;;;31.10;26.80;;;;;11.18;56.67;100280.55;488306;111;392710;-80
2021/05/06 02:48:11;;;;;;;;;23.90;21.30;;;;;11.25;56.37;100284.41;488103;111;382960;-80
2021/05/06 02:49:16;;;;;;;;;24.10;19.40;;;;;11.25;56.37;100284.41;488179;111;382156;-80
2021/05/06 02:50:22;;;;;;;;;31.90;21.50;;;;;11.26;54.69;100285.25;487765;111;387743;-76
2021/05/06 02:51:30;;;;;;;;;28.00;20.60;;;;;11.33;54.77;100286.41;487813;111;383646;-76
2021/05/06 02:52:35;;;;;;;;;32.90;28.00;;;;;11.34;55.76;100280.97;487596;111;385550;-76
2021/05/06 02:53:46;;;;;;;;;27.30;25.10;;;;;11.34;55.76;100280.97;487999;111;384161;-75
2021/05/06 02:54:47;;;;;;;;;28.40;25.90;;;;;11.37;56.46;100278.05;487041;111;384777;-75
2021/05/06 02:55:57;;;;;;;;;29.00;26.90;;;;;11.40;54.56;100279.60;487671;111;385014;-74
2021/05/06 02:56:58;;;;;;;;;31.80;26.80;;;;;11.41;54.97;100279.48;487048;111;385234;-76
2021/05/06 02:58:05;;;;;;;;;34.70;29.50;;;;;11.45;55.12;100275.61;478993;114;385747;-74
2021/05/06 02:59:31;;;;;;;;;32.60;29.30;;;;;11.47;54.03;100276.31;478978;114;385184;-78
2021/05/06 03:03:08;;;;;;;;;36.20;30.30;;;;;11.54;54.10;100266.83;478975;114;386279;-79
2021/05/06 03:04:12;;;;;;;;;23.00;20.00;;;;;11.57;53.74;100273.72;479349;114;383155;-80
2021/05/06 03:05:16;;;;;;;;;34.20;30.60;;;;;11.58;53.95;100268.23;479534;114;385826;-79
2021/05/06 03:06:23;;;;;;;;;36.00;30.10;;;;;11.58;53.73;100265.58;479221;114;386769;-77
2021/05/06 03:07:29;;;;;;;;;31.90;30.80;;;;;11.64;53.64;100258.91;478935;114;386420;-77
2021/05/06 03:08:35;;;;;;;;;35.70;29.80;;;;;11.64;53.64;100258.91;478981;114;385173;-75
2021/05/06 03:09:52;;;;;;;;;35.80;32.50;;;;;11.65;52.09;100258.76;478951;114;386715;-75
2021/05/06 03:11:05;;;;;;;;;36.40;33.10;;;;;11.68;52.07;100255.83;476158;114;386714;-81
2021/05/06 03:12:11;;;;;;;;;39.90;32.80;;;;;11.73;53.00;100258.15;478050;114;387805;-79
2021/05/06 03:13:44;;;;;;;;;30.30;27.00;;;;;11.78;51.93;100263.06;478376;114;385639;-76
2021/05/06 03:23:22;;;;;;;;;52.90;41.40;;;;;11.93;51.17;100249.29;478991;114;384150;-75
2021/05/06 03:24:29;;;;;;;;;54.30;41.60;;;;;11.95;50.47;100252.66;479562;114;384684;-76
2021/05/06 03:25:33;;;;;;;;;56.70;42.00;;;;;11.85;50.34;100234.92;479224;114;386765;-76
2021/05/06 03:26:37;;;;;;;;;52.10;39.70;;;;;11.85;50.34;100234.92;479271;114;385604;-75
2021/05/06 03:27:46;;;;;;;;;54.80;40.30;;;;;11.97;50.03;100245.36;479525;114;387639;-74
2021/05/06 03:28:52;;;;;;;;;56.40;43.00;;;;;12.02;50.29;100245.83;479123;114;386974;-77
2021/05/06 03:30:02;;;;;;;;;58.20;44.60;;;;;12.06;50.16;100246.41;478896;114;389580;-76
2021/05/06 03:32:31;;;;;;;;;57.10;45.50;;;;;12.13;50.51;100247.53;478925;114;383843;-77
2021/05/06 03:35:16;;;;;;;;;58.70;44.60;;;;;12.14;50.39;100251.89;478964;114;387794;-75
2021/05/06 03:42:05;;;;;;;;;59.20;41.70;;;;;12.25;47.58;100251.81;479060;114;388812;-74
2021/05/06 03:43:19;;;;;;;;;27.60;16.00;;;;;12.23;49.98;100251.08;479307;114;382861;-75
2021/05/06 03:49:20;;;;;;;;;92.60;78.70;;;;;12.28;48.50;100254.20;479130;114;393006;-77
2021/05/06 04:03:38;;;;;;;;;37.80;33.20;;;;;12.51;50.09;100239.66;479615;113;386102;-78
2021/05/06 04:15:52;;;;;;;;;27.90;21.70;;;;;12.62;49.98;100246.71;479549;113;385128;-82
2021/05/06 04:16:58;;;;;;;;;25.00;23.50;;;;;12.62;50.49;100247.56;477090;113;383638;-83
2021/05/06 04:18:06;;;;;;;;;22.10;21.30;;;;;12.64;50.12;100237.58;479661;113;383375;-81
2021/05/06 04:19:15;;;;;;;;;15.70;12.00;;;;;12.66;50.20;100238.31;479799;113;380496;-80
2021/05/06 04:21:44;;;;;;;;;19.10;18.00;;;;;12.69;50.38;100246.03;479653;113;385909;-74
2021/05/06 04:25:43;;;;;;;;;24.60;21.30;;;;;12.78;51.14;100239.02;479721;113;383857;-76
2021/05/06 04:26:58;;;;;;;;;21.50;18.60;;;;;12.82;50.71;100240.44;479533;113;380911;-74
2021/05/06 04:28:00;;;;;;;;;17.80;15.40;;;;;12.82;50.71;100240.44;478681;113;380620;-73
2021/05/06 04:29:45;;;;;;;;;18.40;15.80;;;;;12.83;51.28;100244.77;479239;113;382190;-73
2021/05/06 04:31:01;;;;;;;;;16.00;14.50;;;;;12.89;50.89;100248.73;477671;113;379463;-81
2021/05/06 04:36:11;;;;;;;;;31.70;25.70;;;;;12.95;52.29;100243.69;479862;113;382034;-83
2021/05/06 04:37:13;;;;;;;;;17.80;17.10;;;;;12.95;52.29;100243.69;479693;113;380776;-76
2021/05/06 04:38:21;;;;;;;;;19.40;16.60;;;;;12.96;51.60;100249.84;480020;113;376219;-77
2021/05/06 04:39:31;;;;;;;;;8.90;5.40;;;;;12.97;51.61;100243.53;479695;113;377154;-81
2021/05/06 04:40:55;;;;;;;;;19.70;17.40;;;;;12.97;51.79;100241.70;479596;113;382518;-80
2021/05/06 04:41:52;;;;;;;;;16.80;15.60;;;;;12.97;51.79;100241.70;477533;113;376173;-81
2021/05/06 04:43:30;;;;;;;;;16.30;15.50;;;;;12.99;51.52;100250.41;479333;113;381209;-81
2021/05/06 04:53:34;;;;;;;;;18.70;16.50;;;;;13.10;52.53;100242.31;471548;115;380901;-82
2021/05/06 04:54:40;;;;;;;;;21.40;18.80;;;;;13.13;52.49;100249.19;471724;115;383834;-82
2021/05/06 04:55:46;;;;;;;;;17.60;16.30;;;;;13.15;52.74;100249.88;471585;115;381613;-82
2021/05/06 04:57:00;;;;;;;;;18.10;15.90;;;;;13.15;52.59;100239.20;471582;115;381956;-83
2021/05/06 05:03:49;;;;;;;;;21.10;20.00;;;;;13.21;53.12;100244.82;471914;115;383746;-77
2021/05/06 05:04:50;;;;;;;;;18.60;17.20;;;;;13.23;53.18;100239.35;471367;115;381262;-77
2021/05/06 05:05:53;;;;;;;;;17.80;15.40;;;;;13.23;53.04;100244.70;472233;114;381414;-78
2021/05/06 05:07:06;;;;;;;;;18.30;16.40;;;;;13.24;53.77;100238.38;472432;115;381477;-78
2021/05/06 05:08:08;;;;;;;;;20.20;17.60;;;;;13.26;53.19;100239.07;470514;115;382693;-76
2021/05/06 05:09:27;;;;;;;;;20.10;15.20;;;;;13.27;53.15;100238.09;471514;115;380775;-79
2021/05/06 05:10:34;;;;;;;;;18.50;15.60;;;;;13.29;53.15;100251.29;469865;115;382760;-79
2021/05/06 05:11:45;;;;;;;;;22.90;15.90;;;;;13.32;53.05;100245.66;471634;115;383993;-79
2021/05/06 05:13:02;;;;;;;;;16.00;15.40;;;;;13.34;53.43;100247.20;472234;115;381469;-76
2021/05/06 05:14:28;;;;;;;;;18.90;16.60;;;;;13.36;53.31;100252.42;470983;115;382710;-74
2021/05/06 05:18:22;;;;;;;;;17.40;14.60;;;;;13.36;53.31;100252.42;471501;115;381960;-75
2021/05/06 05:21:14;;;;;;;;;15.40;14.10;;;;;13.37;53.38;100251.44;471601;115;379975;-80
2021/05/06 05:23:37;;;;;;;;;18.60;14.80;;;;;13.42;53.73;100254.52;471555;115;381641;-78
2021/05/06 05:24:46;;;;;;;;;18.10;16.40;;;;;13.42;53.73;100254.52;471422;115;382674;-79
2021/05/06 05:25:51;;;;;;;;;14.00;12.30;;;;;13.44;53.56;100240.03;471581;113;381424;-78
2021/05/06 05:26:55;;;;;;;;;20.00;16.70;;;;;13.44;53.71;100240.03;471598;115;376050;-77
2021/05/06 05:27:59;;;;;;;;;15.10;14.20;;;;;13.47;53.82;100247.75;472101;115;380618;-80
2021/05/06 05:29:03;;;;;;;;;28.50;27.10;;;;;13.48;53.62;100241.44;471988;115;385198;-79
2021/05/06 05:30:10;;;;;;;;;38.90;32.80;;;;;13.48;53.62;100241.44;471674;115;386780;-77
2021/05/06 05:31:15;;;;;;;;;19.40;18.30;;;;;13.53;54.26;100236.48;471459;115;379392;-79
2021/05/06 05:32:20;;;;;;;;;56.20;43.70;;;;;13.53;54.26;100236.48;471729;115;386441;-79
2021/05/06 05:33:25;;;;;;;;;15.40;12.70;;;;;13.56;53.98;100233.53;471887;115;372715;-83
2021/05/06 05:34:33;;;;;;;;;15.70;12.50;;;;;13.58;53.96;100236.92;471678;115;379219;-80
2021/05/06 05:35:38;;;;;;;;;11.60;7.00;;;;;13.58;53.96;100236.92;471524;115;375155;-78
2021/05/06 05:36:44;;;;;;;;;13.40;11.20;;;;;13.61;54.36;100236.64;471609;115;378787;-76
2021/05/06 05:37:50;;;;;;;;;16.60;14.50;;;;;13.63;54.26;100231.13;472229;115;373580;-79
2021/05/06 05:38:59;;;;;;;;;17.10;14.40;;;;;13.63;54.26;100231.13;471618;115;380446;-78
2021/05/06 05:40:16;;;;;;;;;11.50;11.50;;;;;13.66;54.14;100237.03;476891;113;378975;-78
2021/05/06 05:43:01;;;;;;;;;14.00;11.60;;;;;13.68;53.83;100235.08;463467;115;378635;-76
2021/05/06 05:44:31;;;;;;;;;11.60;9.80;;;;;13.70;54.16;100240.27;471450;115;374190;-74
2021/05/06 05:45:59;;;;;;;;;17.10;13.70;;;;;13.76;54.32;100234.34;462416;118;380279;-75
2021/05/06 05:47:26;;;;;;;;;14.20;14.00;;;;;13.76;54.32;100234.34;468807;115;376878;-75
2021/05/06 05:55:18;;;;;;;;;13.70;11.40;;;;;13.92;54.99;100233.72;471620;115;375466;-80
2021/05/06 05:56:23;;;;;;;;;12.60;10.50;;;;;13.97;54.74;100228.80;471315;115;366544;-77
2021/05/06 05:57:27;;;;;;;;;8.60;7.90;;;;;13.98;54.75;100233.98;469600;116;364407;-81
2021/05/06 05:58:31;;;;;;;;;9.50;7.90;;;;;13.99;54.24;100227.66;469551;116;370694;-82
2021/05/06 05:59:35;;;;;;;;;9.90;9.90;;;;;14.01;54.30;100230.16;469610;116;367322;-76
2021/05/06 06:00:40;;;;;;;;;11.20;9.50;;;;;14.05;54.00;100226.22;469242;116;373509;-77
2021/05/06 06:01:46;;;;;;;;;12.70;11.40;;;;;14.11;53.33;100230.98;468903;116;375061;-82
2021/05/06 06:02:50;;;;;;;;;9.50;8.60;;;;;14.14;53.15;100225.33;469182;116;370201;-78
2021/05/06 06:03:54;;;;;;;;;13.60;11.00;;;;;14.14;53.15;100225.33;469441;116;372997;-75
2021/05/06 06:04:58;;;;;;;;;15.20;12.10;;;;;14.17;53.46;100227.71;469190;116;374562;-77
2021/05/06 06:06:02;;;;;;;;;11.90;10.30;;;;;14.22;53.92;100230.80;469425;116;374977;-78
2021/05/06 06:07:06;;;;;;;;;9.30;8.40;;;;;14.25;53.77;100233.18;469291;116;371857;-77
2021/05/06 06:08:10;;;;;;;;;7.90;7.70;;;;;14.27;53.13;100226.69;469203;116;368866;-73
2021/05/06 06:09:14;;;;;;;;;8.90;8.20;;;;;14.30;52.44;100229.06;469537;116;368328;-73
2021/05/06 06:10:20;;;;;;;;;8.90;6.30;;;;;14.34;52.56;100226.12;469403;116;361145;-77
2021/05/06 06:11:23;;;;;;;;;8.70;8.40;;;;;14.38;52.42;100230.19;469070;116;367562;-75
2021/05/06 06:12:29;;;;;;;;;9.20;9.20;;;;;14.41;52.45;100225.39;469488;116;371925;-75
2021/05/06 06:13:33;;;;;;;;;7.20;7.20;;;;;14.45;52.68;100223.26;469084;116;363620;-73
2021/05/06 06:14:44;;;;;;;;;8.80;8.70;;;;;14.51;52.84;100226.18;469343;116;359242;-75
2021/05/06 06:15:59;;;;;;;;;8.90;7.90;;;;;14.51;52.84;100226.18;468384;116;365135;-78
2021/05/06 06:17:01;;;;;;;;;9.70;8.50;;;;;14.53;51.97;100220.66;468962;116;360542;-78
2021/05/06 06:18:14;;;;;;;;;7.60;6.70;;;;;14.57;52.29;100220.22;469641;116;364091;-77
2021/05/06 06:19:20;;;;;;;;;6.70;6.50;;;;;14.60;52.76;100217.24;469186;116;361027;-77
2021/05/06 06:20:25;;;;;;;;;8.70;8.70;;;;;14.62;51.91;100217.92;469136;116;362043;-79
2021/05/06 06:21:32;;;;;;;;;6.80;6.80;;;;;14.66;52.09;100208.61;469191;116;357916;-79
2021/05/06 06:22:36;;;;;;;;;8.80;7.10;;;;;14.68;52.35;100214.64;470717;115;362633;-78
2021/05/06 06:23:40;;;;;;;;;8.00;7.00;;;;;14.71;52.41;100217.02;475869;113;357877;-80
2021/05/06 06:24:44;;;;;;;;;7.40;6.70;;;;;14.73;52.42;100215.05;477381;113;361932;-73
2021/05/06 06:25:48;;;;;;;;;8.10;7.50;;;;;14.78;51.47;100206.54;478508;113;362739;-76
2021/05/06 06:26:52;;;;;;;;;9.70;7.90;;;;;14.78;51.47;100206.54;477375;113;362857;-79
2021/05/06 06:27:56;;;;;;;;;6.90;6.30;;;;;14.79;51.67;100209.08;469089;115;362997;-76
2021/05/06 06:29:04;;;;;;;;;9.20;7.30;;;;;14.85;51.81;100207.63;468102;115;360191;-78
2021/05/06 06:30:12;;;;;;;;;7.10;7.10;;;;;14.85;51.81;100207.63;481678;113;364114;-77
2021/05/06 06:31:19;;;;;;;;;7.70;6.60;;;;;14.89;51.71;100202.80;481625;113;356668;-78
2021/05/06 06:32:22;;;;;;;;;6.20;6.20;;;;;14.90;51.01;100207.17;479114;113;363050;-77
2021/05/06 06:33:28;;;;;;;;;9.60;8.80;;;;;14.91;50.83;100203.48;478341;113;361327;-81
2021/05/06 06:34:32;;;;;;;;;7.80;7.10;;;;;14.94;50.68;100197.82;478434;113;364650;-82
2021/05/06 06:35:37;;;;;;;;;9.22;8.33;;;;;14.97;50.21;100197.52;477931;113;355672;-77
2021/05/06 06:36:45;;;;;;;;;8.50;8.50;;;;;14.97;50.21;100197.52;475413;113;365828;-81
2021/05/06 06:37:48;;;;;;;;;10.20;9.10;;;;;15.02;50.42;100195.23;477866;113;368307;-80
2021/05/06 06:38:53;;;;;;;;;8.30;7.00;;;;;15.03;50.88;100188.89;476939;113;364041;-80
2021/05/06 06:39:57;;;;;;;;;7.50;7.50;;;;;15.03;50.88;100188.89;475013;113;365621;-80
2021/05/06 06:41:03;;;;;;;;;8.20;7.60;;;;;15.09;50.93;100188.27;476816;113;362507;-76
2021/05/06 06:42:09;;;;;;;;;7.70;7.70;;;;;15.09;50.93;100188.27;477768;113;363256;-76
2021/05/06 06:43:13;;;;;;;;;8.70;8.10;;;;;15.14;50.42;100185.95;478201;113;352394;-78
2021/05/06 06:44:19;;;;;;;;;6.00;6.00;;;;;15.14;50.42;100185.95;471445;115;359413;-79
2021/05/06 06:45:23;;;;;;;;;8.20;7.60;;;;;15.17;50.21;100182.97;477705;113;352751;-76
2021/05/06 06:46:28;;;;;;;;;8.70;7.40;;;;;15.17;50.21;100182.97;477359;113;359890;-78
2021/05/06 06:47:32;;;;;;;;;7.40;7.40;;;;;15.19;49.60;100186.31;477372;113;362741;-78
2021/05/06 06:48:36;;;;;;;;;6.70;6.50;;;;;15.22;49.86;100183.36;478771;113;361829;-79
2021/05/06 06:49:42;;;;;;;;;13.30;11.70;;;;;15.24;49.89;100184.88;474966;113;365673;-79
2021/05/06 06:50:46;;;;;;;;;17.90;14.10;;;;;15.27;49.77;100186.41;477333;113;374768;-77
2021/05/06 06:51:50;;;;;;;;;7.70;7.10;;;;;15.30;49.59;100183.41;477768;113;354436;-78
2021/05/06 06:52:54;;;;;;;;;6.70;6.70;;;;;15.31;49.48;100185.10;478948;113;359260;-79
2021/05/06 06:53:58;;;;;;;;;7.20;6.80;;;;;15.35;49.00;100186.45;475680;113;361316;-81
2021/05/06 06:55:02;;;;;;;;;7.30;6.70;;;;;15.35;49.00;100186.45;475734;113;358714;-78
2021/05/06 06:56:07;;;;;;;;;5.60;5.60;;;;;15.38;48.95;100182.64;479338;113;357250;-81
2021/05/06 06:57:11;;;;;;;;;7.10;6.90;;;;;15.40;49.01;100181.48;477142;113;358608;-76
2021/05/06 06:58:16;;;;;;;;;6.70;6.70;;;;;15.43;49.16;100177.64;480019;113;360451;-76
2021/05/06 06:59:20;;;;;;;;;8.10;7.40;;;;;14.81;48.82;100065.17;478145;113;361915;-78
2021/05/06 07:00:24;;;;;;;;;9.27;7.64;;;;;15.49;48.96;100175.20;479420;113;364481;-81
2021/05/06 07:01:28;;;;;;;;;8.40;7.30;;;;;15.53;48.39;100181.94;479633;113;360567;-80
2021/05/06 07:02:32;;;;;;;;;7.90;7.10;;;;;15.53;48.39;100181.94;478999;113;359054;-77
2021/05/06 07:03:37;;;;;;;;;6.00;6.00;;;;;15.55;48.11;100173.72;480134;113;358556;-79
2021/05/06 07:04:43;;;;;;;;;8.10;7.00;;;;;15.57;48.44;100182.47;480126;113;359160;-81
2021/05/06 07:05:47;;;;;;;;;8.70;6.60;;;;;15.57;48.22;100177.11;479831;113;360683;-80
2021/05/06 07:06:53;;;;;;;;;6.70;6.10;;;;;15.58;47.60;100171.58;474817;113;357270;-76
2021/05/06 07:08:13;;;;;;;;;7.40;6.10;;;;;15.60;48.73;100169.56;476326;113;358923;-77
2021/05/06 07:09:17;;;;;;;;;9.00;7.20;;;;;15.60;48.73;100169.56;475820;113;360585;-83
2021/05/06 07:10:22;;;;;;;;;6.20;6.20;;;;;15.62;47.05;100174.78;479917;113;355916;-78
2021/05/06 07:11:26;;;;;;;;;6.90;6.30;;;;;15.64;47.07;100176.30;479853;113;356743;-78
2021/05/06 07:12:31;;;;;;;;;6.40;6.00;;;;;15.67;47.26;100175.98;478464;113;353616;-79
2021/05/06 07:13:35;;;;;;;;;11.60;9.80;;;;;15.67;47.26;100175.98;479021;113;362637;-78
2021/05/06 07:14:39;;;;;;;;;11.30;8.70;;;;;15.69;47.49;100174.00;480168;113;360883;-79
2021/05/06 07:15:44;;;;;;;;;9.90;9.90;;;;;15.74;47.79;100178.88;480799;113;361034;-82
2021/05/06 07:16:48;;;;;;;;;7.40;7.20;;;;;15.76;47.26;100177.70;476284;113;358446;-80
2021/05/06 07:17:52;;;;;;;;;7.00;7.00;;;;;15.76;47.26;100177.70;480857;113;349469;-80
2021/05/06 07:18:58;;;;;;;;;5.80;5.60;;;;;15.79;47.96;100182.75;480324;113;353485;-78
2021/05/06 07:20:02;;;;;;;;;6.80;6.60;;;;;15.79;47.67;100177.38;479010;113;356030;-76
2021/05/06 07:21:07;;;;;;;;;7.60;6.70;;;;;15.79;47.67;100177.38;470216;116;349472;-77
2021/05/06 07:22:11;;;;;;;;;9.30;7.90;;;;;15.82;47.98;100179.78;470138;116;356847;-77
2021/05/06 07:23:17;;;;;;;;;9.70;7.60;;;;;15.83;48.19;100177.91;470444;116;349688;-80
2021/05/06 07:24:21;;;;;;;;;8.80;7.90;;;;;15.85;48.36;100187.50;470010;116;350873;-82
2021/05/06 07:25:25;;;;;;;;;7.10;5.70;;;;;15.85;48.36;100187.50;470206;116;354418;-81
2021/05/06 07:26:31;;;;;;;;;8.20;6.30;;;;;15.86;48.05;100182.95;470143;116;351515;-77
2021/05/06 07:27:35;;;;;;;;;5.80;5.80;;;;;15.87;48.21;100179.28;469920;115;355999;-78
2021/05/06 07:28:39;;;;;;;;;6.20;6.00;;;;;15.87;47.39;100173.92;470482;116;352151;-76
2021/05/06 07:29:46;;;;;;;;;6.90;6.20;;;;;15.91;47.01;100186.02;469951;116;357194;-81
2021/05/06 07:30:51;;;;;;;;;7.80;7.00;;;;;15.91;47.01;100186.02;470249;116;358137;-80
2021/05/06 07:31:55;;;;;;;;;7.10;6.00;;;;;15.94;47.47;100180.33;470237;116;356166;-77
2021/05/06 07:32:59;;;;;;;;;7.70;7.20;;;;;15.94;47.47;100180.33;470151;116;354918;-78
2021/05/06 07:34:03;;;;;;;;;8.50;7.80;;;;;15.95;47.52;100189.22;470446;116;355517;-80
2021/05/06 07:35:08;;;;;;;;;7.90;6.60;;;;;15.95;47.41;100187.39;470259;116;352864;-78
2021/05/06 07:36:13;;;;;;;;;13.80;12.70;;;;;15.97;46.91;100193.42;469795;116;367611;-80
2021/05/06 07:37:18;;;;;;;;;7.00;7.00;;;;;15.97;46.97;100182.69;469894;116;359199;-80
2021/05/06 07:38:21;;;;;;;;;6.70;6.30;;;;;16.00;46.83;100184.20;470194;116;352263;-76
2021/05/06 07:39:25;;;;;;;;;8.10;8.00;;;;;16.01;47.60;100184.06;470457;116;358701;-79
2021/05/06 07:40:30;;;;;;;;;8.60;7.00;;;;;16.04;47.12;100191.78;470208;116;354342;-79
2021/05/06 07:41:35;;;;;;;;;6.10;6.10;;;;;16.07;47.06;100187.94;470211;116;355416;-80
2021/05/06 07:42:41;;;;;;;;;5.30;5.30;;;;;16.07;45.56;100188.78;469947;116;359101;-80
2021/05/06 07:43:47;;;;;;;;;6.00;6.00;;;;;16.12;46.11;100178.39;470225;116;352737;-79
2021/05/06 07:44:51;;;;;;;;;9.30;7.10;;;;;16.12;46.11;100178.39;469981;116;359178;-76
2021/05/06 07:45:56;;;;;;;;;8.10;8.10;;;;;16.14;46.56;100191.66;470233;116;354494;-78
2021/05/06 07:47:10;;;;;;;;;6.60;6.30;;;;;16.16;45.52;100181.59;470198;116;353863;-81
2021/05/06 07:48:17;;;;;;;;;6.50;6.30;;;;;16.16;45.52;100181.59;469924;116;354464;-80
2021/05/06 07:49:21;;;;;;;;;7.80;6.30;;;;;16.18;45.64;100177.74;470540;116;350917;-80
2021/05/06 07:50:27;;;;;;;;;7.20;6.60;;;;;16.18;45.64;100177.74;469941;116;354013;-79